Time;durP1;ratioP1;P1;durP2;ratioP2;P2;SDS_P1;SDS_P2;PMS_P1;PMS_P2;Temp;Humidity;BMP_temperature;BMP_pressure;BME280_temperature;BME280_humidity;BME280_pressure;Samples;Min_cycle;Max_cycle;Signal;HPM_P1;HPM_P2
2023/05/25 00:03:21;;;;;;;5.55;3.63;;;;;;;;;;4821107;29;20425;-82
2023/05/25 00:06:12;;;;;;;9.45;3.80;;;;;;;;;;4823779;29;20072;-83
2023/05/25 00:09:16;;;;;;;7.50;4.13;;;;;;;;;;4824404;29;20053;-82
2023/05/25 00:11:58;;;;;;;8.25;4.03;;;;;;;;;;4819415;29;20164;-82
2023/05/25 00:14:48;;;;;;;8.38;3.92;;;;;;;;;;4791566;29;20041;-83
2023/05/25 00:17:37;;;;;;;8.52;3.83;;;;;;;;;;4844029;29;20052;-82
2023/05/25 00:20:13;;;;;;;11.20;4.45;;;;;;;;;;4842588;29;20052;-83
2023/05/25 00:23:10;;;;;;;9.60;4.13;;;;;;;;;;4849916;29;20048;-83
2023/05/25 00:25:54;;;;;;;8.10;3.80;;;;;;;;;;4842872;29;20061;-82
2023/05/25 00:28:31;;;;;;;10.55;4.63;;;;;;;;;;4845471;29;20048;-82
2023/05/25 00:31:00;;;;;;;11.73;4.18;;;;;;;;;;4842860;29;20108;-82
2023/05/25 00:33:37;;;;;;;9.50;3.78;;;;;;;;;;4814793;29;20064;-82
2023/05/25 00:36:24;;;;;;;8.05;4.00;;;;;;;;;;4839336;29;20041;-82
2023/05/25 00:39:12;;;;;;;10.80;4.13;;;;;;;;;;4822313;29;20053;-82
2023/05/25 00:42:09;;;;;;;7.68;4.05;;;;;;;;;;4824328;29;20134;-82
2023/05/25 00:44:47;;;;;;;9.70;3.97;;;;;;;;;;4817126;29;20148;-82
2023/05/25 00:47:16;;;;;;;8.80;3.88;;;;;;;;;;4800223;29;20094;-82
2023/05/25 00:49:57;;;;;;;7.55;4.40;;;;;;;;;;4805399;29;20076;-82
2023/05/25 00:52:44;;;;;;;11.38;4.32;;;;;;;;;;4823299;29;20117;-82
2023/05/25 00:55:45;;;;;;;8.63;4.20;;;;;;;;;;4816969;29;20060;-83
2023/05/25 01:01:39;;;;;;;11.65;4.70;;;;;;;;;;4827271;29;20071;-83
2023/05/25 01:07:30;;;;;;;10.43;4.60;;;;;;;;;;4842669;29;20049;-83
2023/05/25 01:10:09;;;;;;;8.38;4.55;;;;;;;;;;4857262;29;20502;-82
2023/05/25 01:12:59;;;;;;;13.15;4.97;;;;;;;;;;4849860;29;20048;-82
2023/05/25 01:15:47;;;;;;;9.25;4.82;;;;;;;;;;4857396;29;20140;-82
2023/05/25 01:18:41;;;;;;;7.68;3.97;;;;;;;;;;4847529;29;20047;-83
2023/05/25 01:21:36;;;;;;;10.15;4.60;;;;;;;;;;4860571;29;20155;-82
2023/05/25 01:24:22;;;;;;;12.23;4.75;;;;;;;;;;4847021;29;20055;-82
2023/05/25 01:27:31;;;;;;;11.63;4.20;;;;;;;;;;4875228;29;20052;-82
2023/05/25 01:30:10;;;;;;;10.02;4.55;;;;;;;;;;4858600;29;20195;-82
2023/05/25 01:33:08;;;;;;;;;;;;;;;;;;;;;
2023/05/25 01:35:49;;;;;;;8.45;4.57;;;;;;;;;;4848362;29;20566;-82
2023/05/25 01:41:36;;;;;;;10.68;4.28;;;;;;;;;;4840378;29;20110;-82
2023/05/25 01:44:20;;;;;;;7.35;3.65;;;;;;;;;;4848685;29;20127;-82
2023/05/25 01:47:56;;;;;;;;;;;;;;;;;;;;;
2023/05/25 01:51:14;;;;;;;11.52;5.07;;;;;;;;;;4812790;29;20561;-83
2023/05/25 01:57:02;;;;;;;12.35;3.95;;;;;;;;;;4819841;29;20544;-84
2023/05/25 02:00:01;;;;;;;8.15;4.55;;;;;;;;;;4782316;29;20435;-82
2023/05/25 02:03:04;;;;;;;9.10;4.30;;;;;;;;;;4807773;29;20093;-83
2023/05/25 02:05:48;;;;;;;10.30;4.43;;;;;;;;;;4790871;29;20054;-83
2023/05/25 02:08:46;;;;;;;7.32;4.18;;;;;;;;;;4779805;29;20096;-82
2023/05/25 02:11:39;;;;;;;10.27;4.22;;;;;;;;;;4752571;29;20582;-82
2023/05/25 02:17:28;;;;;;;10.20;4.43;;;;;;;;;;4818542;29;20064;-83
2023/05/25 02:23:18;;;;;;;;;;;;;;;;;;;;;
2023/05/25 02:26:02;;;;;;;8.57;4.40;;;;;;;;;;4833033;29;21499;-83
2023/05/25 02:29:11;;;;;;;;;;;;;;;;;;;;;
2023/05/25 02:38:20;;;;;;;;;;;;;;;;;;;;;
2023/05/25 02:44:38;;;;;;;7.97;3.97;;;;;;;;;;4777754;29;20053;-83
2023/05/25 02:47:30;;;;;;;7.10;4.40;;;;;;;;;;4786668;29;20054;-83
2023/05/25 02:50:36;;;;;;;9.70;4.78;;;;;;;;;;4756978;29;20133;-82
2023/05/25 02:56:42;;;;;;;11.98;4.90;;;;;;;;;;4765116;29;20592;-83
2023/05/25 02:59:51;;;;;;;12.52;5.10;;;;;;;;;;4784497;29;20499;-82
2023/05/25 03:02:32;;;;;;;8.98;5.38;;;;;;;;;;4762476;29;20138;-83
2023/05/25 03:05:34;;;;;;;8.98;5.50;;;;;;;;;;4735807;29;20062;-83
2023/05/25 03:08:08;;;;;;;8.68;5.32;;;;;;;;;;4744158;29;20539;-83
2023/05/25 03:11:23;;;;;;;10.13;5.60;;;;;;;;;;4727524;30;20150;-83
2023/05/25 03:18:00;;;;;;;;;;;;;;;;;;;;;
2023/05/25 03:24:10;;;;;;;9.93;6.15;;;;;;;;;;4788543;29;20149;-83
2023/05/25 03:27:22;;;;;;;13.40;6.68;;;;;;;;;;4798003;29;20458;-83
2023/05/25 03:40:08;;;;;;;12.60;7.25;;;;;;;;;;4784847;29;20564;-83
2023/05/25 03:43:10;;;;;;;11.75;6.82;;;;;;;;;;4791368;29;20523;-83
2023/05/25 03:52:44;;;;;;;;;;;;;;;;;;;;;
2023/05/25 03:55:52;;;;;;;13.02;6.95;;;;;;;;;;4744748;29;20051;-82
2023/05/25 03:58:51;;;;;;;;;;;;;;;;;;;;;
2023/05/25 04:01:55;;;;;;;12.15;6.88;;;;;;;;;;4740907;30;20210;-82
2023/05/25 04:04:59;;;;;;;;;;;;;;;;;;;;;
2023/05/25 04:14:41;;;;;;;11.48;7.47;;;;;;;;;;4744163;30;20047;-82
2023/05/25 04:21:19;;;;;;;;;;;;;;;;;;;;;
2023/05/25 04:24:30;;;;;;;11.60;6.95;;;;;;;;;;4774915;29;20385;-82
2023/05/25 04:34:35;;;;;;;;;;;;;;;;;;;;;
2023/05/25 04:37:36;;;;;;;;;;;;;;;;;;;;;
2023/05/25 04:47:21;;;;;;;16.52;8.73;;;;;;;;;;4718543;30;20480;-82
2023/05/25 04:50:44;;;;;;;15.55;8.57;;;;;;;;;;4783795;29;20083;-82
2023/05/25 05:00:30;;;;;;;18.30;9.73;;;;;;;;;;4802048;29;20099;-83
2023/05/25 05:03:17;;;;;;;20.23;8.95;;;;;;;;;;4812662;29;20090;-83
2023/05/25 05:09:38;;;;;;;17.58;9.65;;;;;;;;;;4852492;29;20047;-83
2023/05/25 05:19:11;;;;;;;;;;;;;;;;;;;;;
2023/05/25 05:24:58;;;;;;;22.55;11.32;;;;;;;;;;4851854;29;20056;-83
2023/05/25 05:31:55;;;;;;;23.67;10.38;;;;;;;;;;4870024;29;20047;-83
2023/05/25 05:34:41;;;;;;;17.67;10.27;;;;;;;;;;4856305;29;20125;-83
2023/05/25 05:37:36;;;;;;;;;;;;;;;;;;;;;
2023/05/25 05:40:21;;;;;;;;;;;;;;;;;;;;;
2023/05/25 05:43:42;;;;;;;18.75;11.23;;;;;;;;;;4824422;29;20309;-83
2023/05/25 05:46:58;;;;;;;;;;;;;;;;;;;;;
2023/05/25 05:49:50;;;;;;;18.50;10.30;;;;;;;;;;4745848;30;20089;-83
2023/05/25 05:52:47;;;;;;;;;;;;;;;;;;;;;
2023/05/25 06:02:38;;;;;;;22.48;10.20;;;;;;;;;;4855269;29;20418;-83
2023/05/25 06:06:05;;;;;;;17.20;10.35;;;;;;;;;;4820168;29;20049;-83
2023/05/25 06:09:07;;;;;;;;;;;;;;;;;;;;;
2023/05/25 06:11:56;;;;;;;15.32;8.43;;;;;;;;;;4813734;29;20140;-83
2023/05/25 06:14:50;;;;;;;;;;;;;;;;;;;;;
2023/05/25 06:20:43;;;;;;;17.67;9.65;;;;;;;;;;4811056;29;20061;-83
2023/05/25 06:23:30;;;;;;;23.65;9.48;;;;;;;;;;4811009;29;20049;-82
2023/05/25 06:26:32;;;;;;;18.05;8.98;;;;;;;;;;4814027;29;20060;-83
2023/05/25 06:29:46;;;;;;;18.08;8.55;;;;;;;;;;4808038;29;20094;-82
2023/05/25 06:33:15;;;;;;;;;;;;;;;;;;;;;
2023/05/25 06:36:20;;;;;;;19.88;7.97;;;;;;;;;;4814148;29;21081;-82
2023/05/25 06:38:54;;;;;;;17.98;7.20;;;;;;;;;;4840345;29;20052;-82
2023/05/25 06:41:42;;;;;;;;;;;;;;;;;;;;;
2023/05/25 06:47:06;;;;;;;16.63;5.65;;;;;;;;;;4860977;29;20048;-82
2023/05/25 06:52:35;;;;;;;14.82;5.72;;;;;;;;;;4835356;29;20096;-82
2023/05/25 06:55:29;;;;;;;14.88;5.60;;;;;;;;;;4846049;29;20446;-83
2023/05/25 06:58:26;;;;;;;;;;;;;;;;;;;;;
2023/05/25 07:00:59;;;;;;;15.07;4.63;;;;;;;;;;4882203;29;20148;-82
2023/05/25 07:03:41;;;;;;;19.85;5.25;;;;;;;;;;4851444;29;20052;-82
2023/05/25 07:06:35;;;;;;;15.10;5.07;;;;;;;;;;4861535;29;20044;-83
2023/05/25 07:13:14;;;;;;;15.38;4.20;;;;;;;;;;4872219;29;20502;-82
2023/05/25 07:15:51;;;;;;;10.27;3.83;;;;;;;;;;4873984;29;20160;-83
2023/05/25 07:18:27;;;;;;;16.95;4.30;;;;;;;;;;4837863;29;20104;-83
2023/05/25 07:24:14;;;;;;;15.57;5.40;;;;;;;;;;4853882;29;20045;-83
2023/05/25 07:29:44;;;;;;;16.13;4.55;;;;;;;;;;4872701;29;20478;-82
2023/05/25 07:32:48;;;;;;;11.48;3.75;;;;;;;;;;4869824;29;20049;-83
2023/05/25 07:35:39;;;;;;;12.15;3.92;;;;;;;;;;4832636;29;20057;-82
2023/05/25 07:38:17;;;;;;;14.15;4.13;;;;;;;;;;4839223;29;20045;-83
2023/05/25 07:40:56;;;;;;;13.52;4.20;;;;;;;;;;4842528;29;20777;-82
2023/05/25 07:43:55;;;;;;;14.15;4.10;;;;;;;;;;4838069;29;20214;-82
2023/05/25 07:46:32;;;;;;;17.08;4.68;;;;;;;;;;4845944;29;20574;-82
2023/05/25 07:49:24;;;;;;;13.23;3.85;;;;;;;;;;4843030;29;20044;-82
2023/05/25 07:51:53;;;;;;;17.05;5.03;;;;;;;;;;4847194;29;20059;-82
2023/05/25 07:54:22;;;;;;;17.60;4.43;;;;;;;;;;4858428;29;20052;-82
2023/05/25 07:56:54;;;;;;;14.48;4.30;;;;;;;;;;4848445;29;20049;-82
2023/05/25 07:59:31;;;;;;;15.18;4.47;;;;;;;;;;4812728;29;20057;-82
2023/05/25 08:01:57;;;;;;;10.50;4.10;;;;;;;;;;4816147;29;20064;-82
2023/05/25 08:04:32;;;;;;;16.58;4.15;;;;;;;;;;4834116;29;20107;-82
2023/05/25 08:07:01;;;;;;;18.75;4.80;;;;;;;;;;4825519;29;20079;-82
2023/05/25 08:09:30;;;;;;;12.00;4.47;;;;;;;;;;4807780;29;20198;-82
2023/05/25 08:12:19;;;;;;;15.50;4.45;;;;;;;;;;4821840;29;20049;-82
2023/05/25 08:14:55;;;;;;;16.85;4.75;;;;;;;;;;4819286;29;20239;-82
2023/05/25 08:17:29;;;;;;;13.00;3.90;;;;;;;;;;4833922;29;20077;-82
2023/05/25 08:20:01;;;;;;;15.13;4.32;;;;;;;;;;4829819;29;20455;-82
2023/05/25 08:22:38;;;;;;;14.73;3.63;;;;;;;;;;4820312;29;20064;-82
2023/05/25 08:25:12;;;;;;;14.25;4.22;;;;;;;;;;4809775;29;20554;-82
2023/05/25 08:27:49;;;;;;;18.45;4.78;;;;;;;;;;4806283;29;20064;-82
2023/05/25 08:30:29;;;;;;;15.20;4.45;;;;;;;;;;4858813;29;20510;-81
2023/05/25 08:33:18;;;;;;;;;;;;;;;;;;;;;
2023/05/25 08:35:48;;;;;;;18.42;4.63;;;;;;;;;;4877759;29;20553;-82
2023/05/25 08:38:27;;;;;;;14.45;4.65;;;;;;;;;;4850594;29;20052;-82
2023/05/25 08:41:16;;;;;;;22.98;5.35;;;;;;;;;;4862791;29;20111;-82
2023/05/25 08:44:06;;;;;;;17.10;4.55;;;;;;;;;;4871258;29;20484;-82
2023/05/25 08:46:35;;;;;;;19.00;5.13;;;;;;;;;;4862096;29;20044;-82
2023/05/25 08:49:16;;;;;;;17.50;4.38;;;;;;;;;;4858960;29;20044;-82
2023/05/25 08:54:55;;;;;;;22.98;4.75;;;;;;;;;;4858880;29;20509;-82
2023/05/25 08:57:43;;;;;;;17.45;5.90;;;;;;;;;;4863694;29;20048;-82
2023/05/25 09:00:27;;;;;;;17.15;4.47;;;;;;;;;;4870674;29;20533;-82
2023/05/25 09:03:08;;;;;;;15.32;4.10;;;;;;;;;;4868966;29;20052;-82
2023/05/25 09:05:35;;;;;;;19.42;4.85;;;;;;;;;;4864436;29;20091;-82
2023/05/25 09:08:13;;;;;;;18.52;4.95;;;;;;;;;;4865788;29;20044;-82
2023/05/25 09:10:54;;;;;;;22.83;5.32;;;;;;;;;;4861726;29;20131;-82
2023/05/25 09:13:22;;;;;;;25.52;4.97;;;;;;;;;;4864205;29;20063;-82
2023/05/25 09:16:04;;;;;;;24.42;6.18;;;;;;;;;;4866296;29;20037;-82
2023/05/25 09:18:51;;;;;;;16.95;4.05;;;;;;;;;;4841609;29;20394;-82
2023/05/25 09:21:36;;;;;;;19.48;4.95;;;;;;;;;;4877710;29;20068;-82
2023/05/25 09:24:05;;;;;;;15.77;4.63;;;;;;;;;;4848020;29;20402;-82
2023/05/25 09:26:39;;;;;;;23.85;5.20;;;;;;;;;;4858542;29;20385;-82
2023/05/25 09:29:10;;;;;;;18.95;4.78;;;;;;;;;;4842287;29;20723;-82
2023/05/25 09:34:23;;;;;;;17.80;5.20;;;;;;;;;;4854816;29;20049;-82
2023/05/25 09:36:52;;;;;;;16.27;4.93;;;;;;;;;;4857949;29;20164;-82
2023/05/25 09:39:21;;;;;;;;;;;;;;;;;;4860410;29;20037;-82
2023/05/25 09:41:52;;;;;;;23.23;4.65;;;;;;;;;;4859959;29;21648;-82
2023/05/25 09:44:18;;;;;;;18.92;4.90;;;;;;;;;;4851515;29;20068;-82
2023/05/25 09:49:55;;;;;;;21.10;5.22;;;;;;;;;;4823702;29;20042;-82
2023/05/25 09:52:37;;;;;;;22.00;5.63;;;;;;;;;;4851133;29;23291;-84
2023/05/25 09:55:53;;;;;;;;;;;;;;;;;;;;;
2023/05/25 10:01:39;;;;;;;18.15;4.80;;;;;;;;;;4879464;29;20139;-82
2023/05/25 10:04:08;;;;;;;16.60;5.28;;;;;;;;;;4855934;29;20037;-82
2023/05/25 10:06:48;;;;;;;19.67;5.15;;;;;;;;;;4841483;29;20060;-81
2023/05/25 10:12:44;;;;;;;17.35;5.22;;;;;;;;;;4880525;29;20496;-81
2023/05/25 10:22:07;;;;;;;16.73;4.68;;;;;;;;;;4874451;29;19967;-83
2023/05/25 10:24:53;;;;;;;16.05;4.63;;;;;;;;;;4853613;29;23105;-82
2023/05/25 10:27:22;;;;;;;19.10;4.75;;;;;;;;;;4848768;29;20632;-82
2023/05/25 10:29:48;;;;;;;17.65;4.32;;;;;;;;;;4851611;29;20091;-82
2023/05/25 10:32:15;;;;;;;16.40;4.05;;;;;;;;;;4855212;29;20097;-82
2023/05/25 10:34:42;;;;;;;17.00;4.55;;;;;;;;;;4847331;29;20095;-82
2023/05/25 10:37:10;;;;;;;17.17;4.65;;;;;;;;;;4861241;29;20147;-82
2023/05/25 10:39:36;;;;;;;15.98;4.95;;;;;;;;;;4861398;29;20048;-82
2023/05/25 10:42:03;;;;;;;11.93;4.45;;;;;;;;;;4872849;29;20100;-82
2023/05/25 10:44:29;;;;;;;16.13;4.97;;;;;;;;;;4847843;29;20053;-82
2023/05/25 10:46:56;;;;;;;15.35;4.70;;;;;;;;;;4840164;29;20492;-82
2023/05/25 10:49:31;;;;;;;15.32;4.80;;;;;;;;;;4852334;29;20049;-82
2023/05/25 10:51:58;;;;;;;12.73;4.47;;;;;;;;;;4882546;29;20485;-82
2023/05/25 10:54:28;;;;;;;15.47;4.77;;;;;;;;;;4858010;29;20127;-82
2023/05/25 10:57:13;;;;;;;16.45;4.47;;;;;;;;;;4861727;29;20075;-82
2023/05/25 10:59:44;;;;;;;19.75;5.55;;;;;;;;;;4868630;29;20059;-82
2023/05/25 11:02:11;;;;;;;17.58;4.85;;;;;;;;;;4843451;29;20052;-82
2023/05/25 11:04:37;;;;;;;16.55;4.63;;;;;;;;;;4862770;29;20045;-82
2023/05/25 11:07:04;;;;;;;18.80;4.45;;;;;;;;;;4858767;29;20125;-82
2023/05/25 11:09:30;;;;;;;20.10;5.35;;;;;;;;;;4846665;29;20037;-82
2023/05/25 11:12:01;;;;;;;19.23;5.35;;;;;;;;;;4847587;29;20043;-82
2023/05/25 11:14:30;;;;;;;14.65;4.32;;;;;;;;;;4848634;29;20068;-82
2023/05/25 11:17:13;;;;;;;14.80;4.53;;;;;;;;;;4857985;29;20055;-82
2023/05/25 11:19:39;;;;;;;15.57;4.38;;;;;;;;;;4862239;29;20071;-82
2023/05/25 11:22:21;;;;;;;19.20;5.35;;;;;;;;;;4883635;29;20417;-82
2023/05/25 11:24:47;;;;;;;15.20;4.57;;;;;;;;;;4833419;29;21424;-82
2023/05/25 11:27:14;;;;;;;18.00;4.40;;;;;;;;;;4869027;29;20345;-82
2023/05/25 11:29:40;;;;;;;13.85;4.40;;;;;;;;;;4855777;29;20063;-82
2023/05/25 11:32:15;;;;;;;14.85;4.15;;;;;;;;;;4876932;29;20048;-82
2023/05/25 11:34:47;;;;;;;17.20;4.90;;;;;;;;;;4850008;29;20132;-82
2023/05/25 11:37:19;;;;;;;12.95;4.13;;;;;;;;;;4848250;29;20493;-82
2023/05/25 11:39:47;;;;;;;18.50;4.90;;;;;;;;;;4860383;29;20056;-82
2023/05/25 11:42:15;;;;;;;17.23;4.25;;;;;;;;;;4862067;29;20048;-82
2023/05/25 11:44:42;;;;;;;16.67;4.47;;;;;;;;;;4877410;29;20100;-82
2023/05/25 11:47:13;;;;;;;16.33;4.35;;;;;;;;;;4855296;29;20127;-82
2023/05/25 11:49:44;;;;;;;16.83;4.70;;;;;;;;;;4866258;29;20512;-82
2023/05/25 11:52:11;;;;;;;13.02;4.93;;;;;;;;;;4886077;29;20505;-82
2023/05/25 11:54:40;;;;;;;15.18;4.70;;;;;;;;;;4868314;29;20044;-81
2023/05/25 11:57:12;;;;;;;16.60;5.00;;;;;;;;;;4877625;29;20052;-82
2023/05/25 11:59:38;;;;;;;16.63;4.50;;;;;;;;;;4855777;29;20131;-82
2023/05/25 12:02:05;;;;;;;18.35;4.80;;;;;;;;;;4863128;29;20135;-82
2023/05/25 12:04:34;;;;;;;15.75;4.32;;;;;;;;;;4864196;29;20040;-82
2023/05/25 12:07:06;;;;;;;19.98;4.65;;;;;;;;;;4866350;29;20101;-82
2023/05/25 12:09:33;;;;;;;15.15;5.13;;;;;;;;;;4890555;29;20120;-82
2023/05/25 12:11:59;;;;;;;17.45;5.30;;;;;;;;;;4862751;29;20464;-82
2023/05/25 12:14:25;;;;;;;15.23;4.65;;;;;;;;;;4852520;29;20131;-82
2023/05/25 12:16:51;;;;;;;15.75;4.55;;;;;;;;;;4875191;29;20123;-82
2023/05/25 12:19:17;;;;;;;15.10;4.40;;;;;;;;;;4847445;29;20508;-82
2023/05/25 12:21:46;;;;;;;15.27;4.45;;;;;;;;;;4856059;29;20056;-82
2023/05/25 12:24:12;;;;;;;17.48;4.88;;;;;;;;;;4878071;29;20045;-82
2023/05/25 12:26:50;;;;;;;15.23;4.82;;;;;;;;;;4865515;29;20044;-82
2023/05/25 12:29:16;;;;;;;16.13;4.43;;;;;;;;;;4850796;29;20067;-82
2023/05/25 12:31:42;;;;;;;15.30;4.88;;;;;;;;;;4856336;29;20037;-82
2023/05/25 12:34:12;;;;;;;18.15;5.25;;;;;;;;;;4856236;29;20383;-82
2023/05/25 12:36:42;;;;;;;15.63;4.50;;;;;;;;;;4834484;29;20506;-82
2023/05/25 12:39:08;;;;;;;15.07;5.10;;;;;;;;;;4884912;29;20049;-82
2023/05/25 12:41:47;;;;;;;17.38;4.85;;;;;;;;;;4846703;29;20132;-82
2023/05/25 12:44:20;;;;;;;18.58;5.00;;;;;;;;;;4848879;29;20135;-82
2023/05/25 12:46:47;;;;;;;13.50;4.30;;;;;;;;;;4844227;29;20088;-82
2023/05/25 12:49:29;;;;;;;19.48;5.50;;;;;;;;;;4862615;29;20040;-82
2023/05/25 12:51:55;;;;;;;17.83;5.28;;;;;;;;;;4855444;29;21487;-81
2023/05/25 12:54:48;;;;;;;20.02;6.22;;;;;;;;;;4824805;29;20053;-82
2023/05/25 12:57:35;;;;;;;18.90;4.78;;;;;;;;;;4863357;29;20060;-82
2023/05/25 13:00:08;;;;;;;14.75;4.82;;;;;;;;;;4850111;29;20045;-82
2023/05/25 13:02:37;;;;;;;19.05;5.75;;;;;;;;;;4842760;29;20072;-82
2023/05/25 13:05:03;;;;;;;19.90;4.95;;;;;;;;;;4824020;29;20517;-82
2023/05/25 13:07:30;;;;;;;21.23;5.63;;;;;;;;;;4839038;29;20053;-82
2023/05/25 13:09:56;;;;;;;18.98;5.10;;;;;;;;;;4851427;29;20044;-82
2023/05/25 13:12:22;;;;;;;17.77;5.65;;;;;;;;;;4845994;29;20044;-82
2023/05/25 13:14:48;;;;;;;18.50;4.70;;;;;;;;;;4848541;29;20098;-81
2023/05/25 13:17:14;;;;;;;15.85;4.78;;;;;;;;;;4857677;29;20040;-82
2023/05/25 13:19:40;;;;;;;15.65;4.95;;;;;;;;;;4845042;29;20277;-82
2023/05/25 13:22:06;;;;;;;12.27;4.75;;;;;;;;;;4850913;29;20037;-82
2023/05/25 13:24:35;;;;;;;16.20;4.97;;;;;;;;;;4846969;29;20143;-81
2023/05/25 13:27:01;;;;;;;14.25;4.95;;;;;;;;;;4850185;29;20099;-81
2023/05/25 13:29:33;;;;;;;18.55;5.22;;;;;;;;;;4837807;29;20053;-81
2023/05/25 13:31:59;;;;;;;18.65;4.80;;;;;;;;;;4848703;29;20037;-81
2023/05/25 13:34:35;;;;;;;18.55;4.70;;;;;;;;;;4849466;29;20104;-81
2023/05/25 13:37:01;;;;;;;15.73;4.85;;;;;;;;;;4863144;29;20532;-82
2023/05/25 13:39:30;;;;;;;17.38;4.60;;;;;;;;;;4842500;29;20044;-82
2023/05/25 13:41:57;;;;;;;13.68;4.10;;;;;;;;;;4831786;29;20048;-81
2023/05/25 13:44:23;;;;;;;14.27;5.15;;;;;;;;;;4843785;29;20101;-81
2023/05/25 13:46:49;;;;;;;19.13;4.75;;;;;;;;;;4855034;29;20433;-81
2023/05/25 13:49:18;;;;;;;17.02;4.70;;;;;;;;;;4841587;29;20037;-82
2023/05/25 13:51:44;;;;;;;15.65;4.97;;;;;;;;;;4836661;29;20059;-81
2023/05/25 13:54:11;;;;;;;18.40;5.35;;;;;;;;;;4847529;29;20072;-81
2023/05/25 13:56:41;;;;;;;14.27;4.37;;;;;;;;;;4868940;29;20045;-82
2023/05/25 13:59:10;;;;;;;14.10;4.57;;;;;;;;;;4867834;29;20312;-81
2023/05/25 14:01:36;;;;;;;18.10;4.70;;;;;;;;;;4830636;29;20052;-81
2023/05/25 14:04:03;;;;;;;16.80;5.00;;;;;;;;;;4839134;29;20045;-81
2023/05/25 14:06:29;;;;;;;16.53;5.17;;;;;;;;;;4853634;29;20120;-81
2023/05/25 14:08:55;;;;;;;18.70;5.40;;;;;;;;;;4858278;29;20040;-82
2023/05/25 14:11:21;;;;;;;18.40;4.95;;;;;;;;;;4840134;29;20045;-81
2023/05/25 14:13:47;;;;;;;15.02;4.72;;;;;;;;;;4840974;29;20057;-81
2023/05/25 14:16:13;;;;;;;17.85;5.50;;;;;;;;;;4860252;29;20047;-81
2023/05/25 14:19:03;;;;;;;21.35;5.00;;;;;;;;;;4857913;29;20048;-83
2023/05/25 14:24:24;;;;;;;16.17;4.38;;;;;;;;;;4841633;29;20479;-81
2023/05/25 14:26:50;;;;;;;20.98;4.97;;;;;;;;;;4841535;29;20040;-82
2023/05/25 14:29:16;;;;;;;26.58;5.53;;;;;;;;;;4822565;29;20085;-82
2023/05/25 14:31:42;;;;;;;21.73;5.53;;;;;;;;;;4844280;29;20114;-82
2023/05/25 14:34:08;;;;;;;16.80;4.40;;;;;;;;;;4829794;29;20056;-81
2023/05/25 14:36:36;;;;;;;19.88;5.45;;;;;;;;;;4842400;29;20367;-81
2023/05/25 14:39:02;;;;;;;14.85;4.68;;;;;;;;;;4827218;29;20093;-81
2023/05/25 14:41:28;;;;;;;18.80;5.15;;;;;;;;;;4831750;29;20057;-81
2023/05/25 14:43:54;;;;;;;17.25;4.88;;;;;;;;;;4829948;29;20045;-81
2023/05/25 14:46:20;;;;;;;21.00;5.28;;;;;;;;;;4822581;29;20042;-81
2023/05/25 14:48:46;;;;;;;21.33;5.70;;;;;;;;;;4837794;29;20034;-82
2023/05/25 14:51:12;;;;;;;23.10;5.68;;;;;;;;;;4827162;29;20036;-82
2023/05/25 14:53:38;;;;;;;22.52;5.28;;;;;;;;;;4875314;29;20071;-81
2023/05/25 14:56:05;;;;;;;13.07;5.20;;;;;;;;;;4851911;29;20052;-81
2023/05/25 14:58:33;;;;;;;19.75;4.63;;;;;;;;;;4851034;29;20048;-81
2023/05/25 15:00:59;;;;;;;17.63;4.60;;;;;;;;;;4869743;29;20512;-81
2023/05/25 15:03:27;;;;;;;19.10;5.35;;;;;;;;;;4847769;29;20048;-81
2023/05/25 15:05:54;;;;;;;18.85;5.20;;;;;;;;;;4856595;29;20501;-82
2023/05/25 15:08:23;;;;;;;20.52;5.80;;;;;;;;;;4840013;29;20044;-82
2023/05/25 15:10:49;;;;;;;14.27;4.93;;;;;;;;;;4866487;29;20656;-81
2023/05/25 15:13:15;;;;;;;17.65;5.60;;;;;;;;;;4846967;29;20100;-81
2023/05/25 15:15:44;;;;;;;17.27;5.47;;;;;;;;;;4846372;29;20129;-82
2023/05/25 15:21:50;;;;;;;17.90;4.93;;;;;;;;;;4869241;29;20056;-84
2023/05/25 15:24:31;;;;;;;18.63;5.30;;;;;;;;;;4806879;29;20554;-83
2023/05/25 15:27:03;;;;;;;16.55;5.38;;;;;;;;;;4800407;29;20096;-83
2023/05/25 15:29:30;;;;;;;18.77;5.50;;;;;;;;;;4791956;29;20058;-84
2023/05/25 15:31:59;;;;;;;18.05;6.38;;;;;;;;;;4840773;29;20046;-83
2023/05/25 15:34:28;;;;;;;15.95;5.20;;;;;;;;;;4787873;29;20103;-83
2023/05/25 15:36:55;;;;;;;19.65;5.13;;;;;;;;;;4785333;29;20069;-82
2023/05/25 15:39:22;;;;;;;17.83;4.95;;;;;;;;;;4792597;29;20483;-82
2023/05/25 15:41:53;;;;;;;18.95;4.88;;;;;;;;;;4810925;29;20056;-82
2023/05/25 15:44:20;;;;;;;16.88;5.65;;;;;;;;;;4829065;29;20049;-82
2023/05/25 15:46:46;;;;;;;23.23;5.38;;;;;;;;;;4818430;29;20068;-83
2023/05/25 15:49:12;;;;;;;14.93;4.50;;;;;;;;;;4843767;29;20173;-82
2023/05/25 15:51:42;;;;;;;23.20;6.28;;;;;;;;;;4823141;29;20127;-83
2023/05/25 15:54:11;;;;;;;15.45;5.35;;;;;;;;;;4825671;29;20049;-83
2023/05/25 15:56:37;;;;;;;16.70;4.70;;;;;;;;;;4830192;29;20458;-83
2023/05/25 15:59:13;;;;;;;21.08;4.55;;;;;;;;;;4822836;29;20049;-82
2023/05/25 16:01:39;;;;;;;17.20;4.32;;;;;;;;;;4827914;29;20055;-82
2023/05/25 16:04:15;;;;;;;19.45;4.88;;;;;;;;;;4844336;29;20045;-83
2023/05/25 16:06:43;;;;;;;17.52;5.00;;;;;;;;;;4816914;29;20045;-83
2023/05/25 16:09:10;;;;;;;17.75;5.32;;;;;;;;;;4828494;29;20073;-83
2023/05/25 16:11:56;;;;;;;19.85;5.55;;;;;;;;;;4841525;29;20104;-82
2023/05/25 16:14:22;;;;;;;18.05;4.68;;;;;;;;;;4840623;29;20045;-83
2023/05/25 16:16:48;;;;;;;19.67;5.20;;;;;;;;;;4825455;29;20057;-83
2023/05/25 16:19:19;;;;;;;18.73;5.50;;;;;;;;;;4847020;29;20509;-83
2023/05/25 16:21:46;;;;;;;17.17;4.93;;;;;;;;;;4815498;29;20068;-82
2023/05/25 16:24:12;;;;;;;21.38;5.00;;;;;;;;;;4825248;29;20048;-83
2023/05/25 16:26:38;;;;;;;17.90;4.75;;;;;;;;;;4805532;29;20475;-83
2023/05/25 16:29:07;;;;;;;18.05;4.97;;;;;;;;;;4824623;29;20530;-84
2023/05/25 16:31:33;;;;;;;19.00;4.28;;;;;;;;;;4858721;29;20045;-83
2023/05/25 16:34:01;;;;;;;21.33;4.70;;;;;;;;;;4841875;29;20149;-83
2023/05/25 16:36:27;;;;;;;15.80;4.60;;;;;;;;;;4829172;29;20612;-83
2023/05/25 16:38:54;;;;;;;20.75;5.25;;;;;;;;;;4825142;29;20040;-83
2023/05/25 16:41:22;;;;;;;17.33;4.85;;;;;;;;;;4875343;29;20044;-83
2023/05/25 16:43:48;;;;;;;19.77;5.35;;;;;;;;;;4833330;29;20052;-83
2023/05/25 16:46:14;;;;;;;22.45;5.45;;;;;;;;;;4845000;29;20464;-83
2023/05/25 16:48:43;;;;;;;20.95;5.03;;;;;;;;;;4838806;29;20140;-83
2023/05/25 16:51:13;;;;;;;18.17;4.47;;;;;;;;;;4838412;29;20047;-83
2023/05/25 16:53:40;;;;;;;20.40;4.95;;;;;;;;;;4849414;29;20458;-82
2023/05/25 16:56:06;;;;;;;19.38;4.47;;;;;;;;;;4864879;29;20044;-83
2023/05/25 16:58:32;;;;;;;16.52;4.38;;;;;;;;;;4840784;29;20048;-83
2023/05/25 17:01:00;;;;;;;16.73;4.43;;;;;;;;;;4842982;29;20482;-83
2023/05/25 17:03:30;;;;;;;;;;;;;;;;;;4845484;29;20175;-83
2023/05/25 17:05:56;;;;;;;21.33;5.25;;;;;;;;;;4861760;29;19920;-83
2023/05/25 17:08:22;;;;;;;19.70;4.40;;;;;;;;;;4850812;29;20040;-83
2023/05/25 17:10:48;;;;;;;18.13;4.72;;;;;;;;;;4874126;29;20048;-83
2023/05/25 17:13:14;;;;;;;18.98;4.70;;;;;;;;;;4849066;29;20394;-84
2023/05/25 17:15:40;;;;;;;17.83;4.75;;;;;;;;;;4845416;29;20138;-83
2023/05/25 17:18:06;;;;;;;17.58;4.57;;;;;;;;;;4848334;29;20084;-82
2023/05/25 17:20:33;;;;;;;18.23;4.13;;;;;;;;;;4839627;29;20036;-83
2023/05/25 17:22:59;;;;;;;14.52;4.15;;;;;;;;;;4846078;29;20065;-89
2023/05/25 17:25:25;;;;;;;17.63;4.15;;;;;;;;;;4856417;29;20068;-89
2023/05/25 17:27:51;;;;;;;17.83;4.43;;;;;;;;;;4826791;29;20037;-88
2023/05/25 17:30:17;;;;;;;17.45;4.50;;;;;;;;;;4845066;29;20056;-89
2023/05/25 17:32:43;;;;;;;16.48;4.47;;;;;;;;;;4838343;29;20055;-90
2023/05/25 17:35:09;;;;;;;16.40;4.40;;;;;;;;;;4826725;29;20052;-90
2023/05/25 17:37:38;;;;;;;15.88;4.38;;;;;;;;;;4856482;29;20055;-89
2023/05/25 17:40:04;;;;;;;17.30;4.57;;;;;;;;;;4851674;29;20092;-88
2023/05/25 17:42:30;;;;;;;17.30;4.20;;;;;;;;;;4840825;29;20087;-88
2023/05/25 17:44:56;;;;;;;22.15;4.68;;;;;;;;;;4844358;29;20052;-88
2023/05/25 17:47:24;;;;;;;20.33;4.82;;;;;;;;;;4841939;29;20504;-89
2023/05/25 17:49:50;;;;;;;22.10;5.57;;;;;;;;;;4826951;29;20144;-89
2023/05/25 17:52:16;;;;;;;17.17;4.57;;;;;;;;;;4841759;29;20132;-89
2023/05/25 17:54:42;;;;;;;17.77;4.47;;;;;;;;;;4843541;29;20071;-90
2023/05/25 17:57:08;;;;;;;13.90;4.38;;;;;;;;;;4839270;29;20051;-86
2023/05/25 17:59:35;;;;;;;19.33;4.80;;;;;;;;;;4845821;29;20045;-86
2023/05/25 18:09:53;;;;;;;21.58;5.00;;;;;;;;;;4767286;29;20114;-87
2023/05/25 18:12:55;;;;;;;;;;;;;;;;;;;;;
2023/05/25 18:16:14;;;;;;;18.83;4.95;;;;;;;;;;4810731;29;20049;-87
2023/05/25 18:18:49;;;;;;;23.05;4.53;;;;;;;;;;4777151;29;20054;-87
2023/05/25 18:24:52;;;;;;;21.58;4.57;;;;;;;;;;4798456;29;20061;-86
2023/05/25 18:28:07;;;;;;;17.40;5.45;;;;;;;;;;4786075;29;20054;-87
2023/05/25 18:35:22;;;;;;;;;;;;;;;;;;;;;
2023/05/25 18:45:32;;;;;;;21.98;5.72;;;;;;;;;;4710092;30;21139;-86
2023/05/25 19:31:30;;;;;;;26.23;5.93;;;;;;;;;;4977105;28;20409;-85
2023/05/25 19:33:56;;;;;;;19.85;4.97;;;;;;;;;;4941463;28;20399;-85
2023/05/25 19:36:22;;;;;;;24.02;6.45;;;;;;;;;;4948911;28;20038;-84
2023/05/25 19:38:51;;;;;;;25.83;5.90;;;;;;;;;;4939708;28;20055;-85
2023/05/25 19:41:26;;;;;;;17.83;5.15;;;;;;;;;;4925657;28;20059;-84
2023/05/25 19:43:58;;;;;;;30.02;5.68;;;;;;;;;;4927861;28;20103;-84
2023/05/25 19:46:24;;;;;;;23.02;5.70;;;;;;;;;;4950336;28;20042;-85